createdAt,value
2022-09-03T00:00:58.381Z,17.95
2022-09-03T00:04:06.129Z,18.06
2022-09-03T00:07:13.456Z,18.18
2022-09-03T00:10:22.581Z,18.58
2022-09-03T00:13:29.817Z,18.71
2022-09-03T00:16:47.141Z,18.75
2022-09-03T00:19:56.654Z,18.64
2022-09-03T00:23:01.925Z,18.63
2022-09-03T00:26:17.797Z,18.69
2022-09-03T00:29:25.477Z,18.70
2022-09-03T00:32:35.039Z,18.78
2022-09-03T00:35:43.233Z,18.90
2022-09-03T00:38:46.157Z,18.81
2022-09-03T00:41:59.606Z,18.75
2022-09-03T00:45:07.196Z,18.72
2022-09-03T00:48:17.760Z,18.67
2022-09-03T00:51:28.303Z,18.60
2022-09-03T00:54:40.213Z,18.53
2022-09-03T00:57:47.986Z,18.54
2022-09-03T01:00:52.810Z,18.52
2022-09-03T01:04:01.255Z,18.46
2022-09-03T01:07:09.735Z,18.46
2022-09-03T01:10:19.611Z,18.45
2022-09-03T01:13:25.087Z,18.47
2022-09-03T01:16:36.846Z,18.47
2022-09-03T01:19:56.761Z,18.55
2022-09-03T01:23:39.549Z,18.59
2022-09-03T01:27:03.546Z,18.67
2022-09-03T01:30:10.565Z,18.66
2022-09-03T01:33:18.720Z,18.62
2022-09-03T01:36:27.159Z,18.55
2022-09-03T01:39:36.307Z,18.51
2022-09-03T01:42:48.393Z,18.49
2022-09-03T01:46:00.338Z,18.46
2022-09-03T01:49:07.695Z,18.42
2022-09-03T01:52:14.328Z,18.47
2022-09-03T01:55:29.907Z,18.47
2022-09-03T01:58:36.392Z,18.52
2022-09-03T02:01:44.791Z,18.53
2022-09-03T02:04:57.518Z,18.52
2022-09-03T02:08:01.992Z,18.61
2022-09-03T02:11:07.125Z,18.65
2022-09-03T02:14:10.044Z,18.65
2022-09-03T02:17:14.605Z,18.59
2022-09-03T02:20:21.326Z,18.57
2022-09-03T02:23:27.720Z,18.57
2022-09-03T02:26:31.330Z,18.61
2022-09-03T02:29:34.464Z,18.62
2022-09-03T02:32:39.001Z,18.60
2022-09-03T02:35:42.104Z,18.56
2022-09-03T02:38:45.708Z,18.34
2022-09-03T02:41:53.045Z,18.07
2022-09-03T02:44:58.813Z,17.91
2022-09-03T02:48:03.129Z,17.81
2022-09-03T02:51:13.688Z,17.76
2022-09-03T02:54:20.947Z,17.89
2022-09-03T02:57:27.729Z,17.94
2022-09-03T03:00:30.676Z,17.88
2022-09-03T03:03:34.816Z,17.90
2022-09-03T03:06:37.495Z,17.95
2022-09-03T03:09:40.486Z,18.00
2022-09-03T03:12:43.088Z,17.87
2022-09-03T03:15:46.302Z,17.79
2022-09-03T03:18:50.833Z,17.67
2022-09-03T03:21:53.653Z,17.69
2022-09-03T03:24:57.713Z,17.64
2022-09-03T03:28:01.185Z,17.68
2022-09-03T03:31:07.590Z,17.70
2022-09-03T03:34:11.716Z,17.66
2022-09-03T03:37:14.497Z,17.53
2022-09-03T03:40:17.857Z,17.40
2022-09-03T03:43:20.232Z,17.35
2022-09-03T03:46:23.832Z,17.27
2022-09-03T03:49:27.866Z,17.29
2022-09-03T03:52:30.686Z,17.32
2022-09-03T03:55:35.295Z,17.35
2022-09-03T03:58:44.005Z,17.36
2022-09-03T04:01:46.802Z,17.35
2022-09-03T04:04:50.894Z,17.33
2022-09-03T04:07:53.994Z,17.29
2022-09-03T04:11:00.802Z,17.24
2022-09-03T04:14:03.995Z,17.15
2022-09-03T04:17:06.869Z,17.18
2022-09-03T04:20:11.293Z,17.30
2022-09-03T04:23:13.927Z,17.33
2022-09-03T04:26:19.074Z,17.27
2022-09-03T04:29:22.791Z,17.23
2022-09-03T04:32:43.032Z,17.24
2022-09-03T04:35:47.163Z,17.19
2022-09-03T04:38:51.713Z,17.10
2022-09-03T04:41:54.707Z,17.03
2022-09-03T04:44:57.427Z,17.01
2022-09-03T04:48:00.812Z,16.97
2022-09-03T04:51:06.268Z,16.94
2022-09-03T04:54:09.987Z,16.92
2022-09-03T04:57:12.998Z,16.94
2022-09-03T05:00:18.201Z,17.06
2022-09-03T05:03:22.091Z,17.22
2022-09-03T05:06:27.047Z,17.20
2022-09-03T05:09:29.733Z,17.35
2022-09-03T05:12:33.572Z,17.48
2022-09-03T05:15:36.634Z,17.65
2022-09-03T05:18:42.017Z,17.69
2022-09-03T05:21:46.058Z,17.74
2022-09-03T05:24:48.792Z,17.82
2022-09-03T05:27:51.751Z,18.02
2022-09-03T05:31:00.501Z,18.15
2022-09-03T05:34:04.907Z,18.30
2022-09-03T05:37:09.025Z,18.38
2022-09-03T05:40:13.071Z,18.41
2022-09-03T05:43:17.242Z,18.42
2022-09-03T05:46:20.113Z,18.53
2022-09-03T05:49:22.783Z,18.66
2022-09-03T05:52:26.976Z,18.79
2022-09-03T05:55:29.856Z,18.86
2022-09-03T05:58:33.110Z,18.93
2022-09-03T06:01:36.043Z,19.05
2022-09-03T06:04:38.841Z,19.15
2022-09-03T06:07:42.996Z,19.16
2022-09-03T06:10:45.803Z,19.28
2022-09-03T06:13:48.547Z,19.29
2022-09-03T06:16:53.339Z,19.17
2022-09-03T06:19:56.425Z,19.22
2022-09-03T06:23:00.445Z,19.26
2022-09-03T06:26:05.588Z,19.41
2022-09-03T06:29:08.634Z,19.75
2022-09-03T06:32:11.325Z,20.07
2022-09-03T06:35:14.262Z,20.28
2022-09-03T06:38:21.344Z,20.48
2022-09-03T06:41:25.892Z,20.52
2022-09-03T06:44:28.619Z,20.66
2022-09-03T06:47:31.891Z,20.67
2022-09-03T06:50:34.899Z,20.61
2022-09-03T06:53:40.447Z,20.76
2022-09-03T06:56:43.243Z,20.83
2022-09-03T06:59:45.880Z,20.82
2022-09-03T07:02:48.786Z,20.96
2022-09-03T07:05:51.641Z,21.14
2022-09-03T07:08:58.013Z,21.22
2022-09-03T07:12:01.420Z,21.34
2022-09-03T07:15:04.460Z,21.46
2022-09-03T07:18:07.267Z,21.56
2022-09-03T07:21:11.280Z,21.61
2022-09-03T07:24:15.348Z,21.74
2022-09-03T07:27:17.992Z,21.87
2022-09-03T07:30:20.650Z,21.64
2022-09-03T07:33:23.239Z,21.50
2022-09-03T07:36:27.875Z,21.82
2022-09-03T07:39:33.644Z,22.32
2022-09-03T07:42:38.498Z,22.92
2022-09-03T07:45:41.361Z,23.36
2022-09-03T07:48:49.116Z,23.60
2022-09-03T07:51:54.419Z,23.95
2022-09-03T07:54:59.363Z,24.21
2022-09-03T07:58:01.933Z,24.38
2022-09-03T08:01:11.147Z,24.44
2022-09-03T08:04:14.409Z,24.55
2022-09-03T08:07:17.048Z,24.83
2022-09-03T08:10:21.126Z,24.25
2022-09-03T08:13:23.999Z,24.54
2022-09-03T08:16:31.124Z,24.71
2022-09-03T08:19:33.996Z,24.89
2022-09-03T08:22:37.488Z,24.84
2022-09-03T08:25:41.557Z,25.01
2022-09-03T08:28:44.736Z,25.09
2022-09-03T08:31:47.400Z,24.73
2022-09-03T08:34:50.732Z,24.73
2022-09-03T08:37:56.794Z,25.94
2022-09-03T08:41:06.238Z,26.55
2022-09-03T08:44:18.069Z,26.40
2022-09-03T08:47:23.657Z,26.36
2022-09-03T08:50:27.947Z,26.59
2022-09-03T08:53:37.615Z,27.49
2022-09-03T08:56:42.279Z,27.75
2022-09-03T08:59:44.898Z,27.42
2022-09-03T09:03:01.453Z,27.08
2022-09-03T09:06:10.095Z,26.53
2022-09-03T09:09:22.221Z,26.59
2022-09-03T09:12:42.799Z,26.48
2022-09-03T09:15:53.572Z,26.48
2022-09-03T09:19:11.493Z,25.27
2022-09-03T09:22:19.106Z,25.17
2022-09-03T09:25:24.290Z,24.81
2022-09-03T09:28:32.083Z,24.83
2022-09-03T09:31:35.583Z,24.90
2022-09-03T09:34:39.565Z,24.82
2022-09-03T09:37:52.302Z,24.59
2022-09-03T09:40:57.179Z,25.65
2022-09-03T09:44:06.029Z,25.46
2022-09-03T09:47:11.917Z,25.61
2022-09-03T09:50:25.051Z,25.39
2022-09-03T09:53:30.320Z,26.25
2022-09-03T09:56:33.283Z,26.16
2022-09-03T09:59:38.525Z,26.61
2022-09-03T10:02:42.563Z,26.42
2022-09-03T10:06:02.311Z,27.46
2022-09-03T10:09:10.029Z,27.77
2022-09-03T10:12:19.682Z,28.12
2022-09-03T10:15:27.466Z,28.05
2022-09-03T10:18:37.319Z,27.22
2022-09-03T10:21:44.948Z,27.02
2022-09-03T10:24:52.549Z,26.43
2022-09-03T10:27:56.830Z,26.63
2022-09-03T10:31:16.221Z,26.02
2022-09-03T10:34:23.797Z,26.70
2022-09-03T10:37:33.366Z,26.17
2022-09-03T10:40:39.312Z,26.02
2022-09-03T10:43:54.706Z,26.01
2022-09-03T10:47:04.136Z,25.91
2022-09-03T10:50:13.149Z,26.50
2022-09-03T10:53:23.104Z,27.09
2022-09-03T10:56:31.235Z,27.17
2022-09-03T10:59:43.775Z,27.21
2022-09-03T11:03:03.595Z,27.22
2022-09-03T11:06:10.040Z,27.53
2022-09-03T11:09:18.918Z,27.82
2022-09-03T11:12:26.006Z,27.76
2022-09-03T11:15:33.212Z,28.02
2022-09-03T11:18:41.323Z,28.09
2022-09-03T11:21:45.014Z,27.99
2022-09-03T11:24:53.467Z,27.96
2022-09-03T11:28:09.050Z,27.82
2022-09-03T11:31:24.015Z,27.90
2022-09-03T11:34:45.649Z,28.05
2022-09-03T11:37:55.077Z,28.01
2022-09-03T11:41:02.382Z,28.19
2022-09-03T11:44:18.171Z,28.02
2022-09-03T11:47:24.266Z,27.41
2022-09-03T11:50:29.842Z,26.94
2022-09-03T11:53:37.906Z,26.53
2022-09-03T11:56:42.233Z,25.91
2022-09-03T11:59:45.725Z,25.40
2022-09-03T12:02:51.639Z,25.04
2022-09-03T12:06:11.858Z,24.59
2022-09-03T12:09:25.529Z,24.34
2022-09-03T12:12:49.640Z,23.98
2022-09-03T12:16:23.194Z,23.93
2022-09-03T12:19:30.198Z,23.85
2022-09-03T12:22:38.701Z,23.72
2022-09-03T12:25:45.746Z,23.61
2022-09-03T12:28:49.750Z,23.52
2022-09-03T12:31:56.418Z,23.35
2022-09-03T12:34:59.678Z,23.06
2022-09-03T12:38:05.185Z,22.03
2022-09-03T12:41:23.464Z,21.77
2022-09-03T12:44:32.639Z,21.24
2022-09-03T12:47:40.744Z,20.80
2022-09-03T12:50:49.490Z,20.26
2022-09-03T12:54:01.269Z,19.72
2022-09-03T12:57:04.688Z,19.23
2022-09-03T13:00:09.758Z,18.83
2022-09-03T13:03:14.483Z,18.63
2022-09-03T13:06:20.127Z,18.43
2022-09-03T13:09:26.439Z,18.45
2022-09-03T13:12:33.316Z,18.49
2022-09-03T13:15:36.335Z,18.79
2022-09-03T13:18:43.503Z,18.70
2022-09-03T13:21:50.318Z,19.14
2022-09-03T13:25:05.898Z,19.58
2022-09-03T13:28:17.288Z,20.36
2022-09-03T13:31:28.316Z,21.42
2022-09-03T13:34:33.853Z,22.57
2022-09-03T13:37:39.829Z,23.84
2022-09-03T13:40:48.534Z,25.71
2022-09-03T13:43:56.175Z,24.64
2022-09-03T13:47:01.969Z,26.45
2022-09-03T13:50:23.401Z,28.59
2022-09-03T13:53:35.922Z,35.44
2022-09-03T13:56:52.129Z,33.69
2022-09-03T13:59:58.136Z,31.88
2022-09-03T14:03:09.229Z,29.87
2022-09-03T14:06:20.163Z,29.77
2022-09-03T14:09:34.240Z,33.43
2022-09-03T14:12:46.814Z,35.91
2022-09-03T14:15:53.572Z,33.92
2022-09-03T14:18:59.127Z,29.05
2022-09-03T14:22:15.216Z,30.71
2022-09-03T14:25:19.621Z,35.28
2022-09-03T14:28:31.152Z,35.64
2022-09-03T14:31:53.516Z,35.14
2022-09-03T14:35:07.861Z,35.09
2022-09-03T14:38:33.100Z,30.90
2022-09-03T14:42:11.542Z,30.96
2022-09-03T14:45:30.247Z,30.67
2022-09-03T14:48:55.393Z,31.38
2022-09-03T14:52:09.340Z,33.65
2022-09-03T14:55:22.923Z,31.14
2022-09-03T14:58:36.408Z,28.14
2022-09-03T15:01:40.689Z,28.32
2022-09-03T15:04:53.388Z,30.25
2022-09-03T15:07:58.110Z,39.48
2022-09-03T15:11:02.426Z,45.16
2022-09-03T15:14:11.791Z,42.73
2022-09-03T15:17:34.269Z,41.31
2022-09-03T15:20:47.222Z,44.16
2022-09-03T15:24:00.038Z,42.58
2022-09-03T15:27:13.717Z,37.75
2022-09-03T15:30:19.001Z,34.15
2022-09-03T15:33:30.308Z,31.36
2022-09-03T15:36:37.563Z,31.03
2022-09-03T15:39:43.169Z,36.72
2022-09-03T15:42:47.949Z,42.27
2022-09-03T15:45:57.874Z,44.18
2022-09-03T15:49:04.769Z,43.01
2022-09-03T15:52:11.562Z,37.23
2022-09-03T15:55:16.685Z,35.24
2022-09-03T15:58:25.592Z,33.88
2022-09-03T16:01:34.270Z,30.85
2022-09-03T16:04:50.567Z,29.07
2022-09-03T16:08:06.376Z,28.45
2022-09-03T16:11:12.283Z,32.48
2022-09-03T16:14:17.633Z,36.02
2022-09-03T16:17:28.866Z,34.07
2022-09-03T16:20:37.824Z,30.56
2022-09-03T16:23:44.310Z,28.62
2022-09-03T16:26:51.993Z,27.28
2022-09-03T16:30:00.473Z,26.25
2022-09-03T16:33:09.519Z,25.51
2022-09-03T16:36:30.112Z,25.13
2022-09-03T16:39:41.996Z,25.07
2022-09-03T16:42:48.804Z,25.00
2022-09-03T16:46:00.927Z,25.08
2022-09-03T16:49:12.522Z,25.04
2022-09-03T16:52:37.822Z,25.02
2022-09-03T16:55:59.089Z,25.00
2022-09-03T16:59:10.772Z,25.23
2022-09-03T17:02:41.561Z,25.53
2022-09-03T17:06:03.351Z,25.80
2022-09-03T17:09:13.953Z,25.40
2022-09-03T17:12:25.816Z,24.91
2022-09-03T17:15:35.014Z,24.58
2022-09-03T17:18:45.471Z,24.24
2022-09-03T17:21:50.789Z,24.04
2022-09-03T17:25:02.158Z,23.91
2022-09-03T17:28:24.774Z,23.87
2022-09-03T17:31:37.259Z,23.65
2022-09-03T17:34:54.599Z,23.39
2022-09-03T17:38:02.043Z,23.07
2022-09-03T17:41:16.474Z,22.74
2022-09-03T17:44:28.012Z,22.46
2022-09-03T17:47:50.013Z,22.21
2022-09-03T17:50:55.697Z,21.94
2022-09-03T17:54:05.530Z,21.77
2022-09-03T17:57:16.806Z,21.55
2022-09-03T18:00:25.242Z,21.31
2022-09-03T18:03:32.916Z,21.05
2022-09-03T18:06:43.644Z,20.88
2022-09-03T18:09:53.869Z,20.70
2022-09-03T18:13:08.382Z,20.46
2022-09-03T18:16:15.677Z,20.25
2022-09-03T18:19:31.086Z,20.08
2022-09-03T18:22:55.706Z,19.92
2022-09-03T18:26:18.834Z,19.79
2022-09-03T18:29:52.322Z,19.65
2022-09-03T18:33:15.557Z,19.46
2022-09-03T18:36:35.996Z,19.32
2022-09-03T18:39:56.198Z,19.18
2022-09-03T18:43:24.988Z,19.10
2022-09-03T18:50:39.464Z,19.07
2022-09-03T18:54:02.258Z,19.05
2022-09-03T18:57:27.262Z,19.02
2022-09-03T19:00:49.544Z,18.99
2022-09-03T19:04:20.026Z,18.99
2022-09-03T19:07:46.661Z,18.94
2022-09-03T19:11:10.685Z,18.92
2022-09-03T19:14:39.600Z,18.93
2022-09-03T19:18:18.339Z,18.92
2022-09-03T19:21:45.556Z,18.81
2022-09-03T19:25:16.549Z,18.69
2022-09-03T19:28:39.040Z,18.65
2022-09-03T19:32:03.076Z,18.61
2022-09-03T19:35:33.281Z,18.54
2022-09-03T19:39:04.708Z,18.48
2022-09-03T19:42:32.035Z,18.36
2022-09-03T19:46:00.518Z,18.29
2022-09-03T19:49:27.937Z,18.17
2022-09-03T19:52:53.216Z,18.16
2022-09-03T19:56:16.828Z,18.13
2022-09-03T19:59:39.173Z,18.11
2022-09-03T20:03:00.600Z,17.98
2022-09-03T20:06:23.868Z,18.00
2022-09-03T20:09:48.687Z,18.13
2022-09-03T20:13:00.503Z,18.18
2022-09-03T20:16:08.425Z,18.24
2022-09-03T20:19:18.874Z,18.25
2022-09-03T20:22:30.741Z,18.20
2022-09-03T20:25:50.461Z,18.29
2022-09-03T20:29:16.739Z,18.35
2022-09-03T20:32:32.496Z,18.33
2022-09-03T20:35:44.881Z,18.25
2022-09-03T20:39:23.036Z,18.13
2022-09-03T20:42:42.223Z,18.06
2022-09-03T20:45:56.329Z,17.95
2022-09-03T20:49:05.170Z,17.91
2022-09-03T20:52:11.184Z,17.91
2022-09-03T20:55:21.337Z,17.87
2022-09-03T20:58:27.500Z,17.88
2022-09-03T21:01:36.642Z,17.92
2022-09-03T21:04:52.393Z,18.03
2022-09-03T21:08:01.649Z,17.98
2022-09-03T21:11:07.731Z,17.99
2022-09-03T21:14:20.539Z,18.05
2022-09-03T21:17:35.297Z,18.11
2022-09-03T21:20:44.271Z,18.16
2022-09-03T21:23:49.545Z,18.24
2022-09-03T21:26:54.965Z,18.35
2022-09-03T21:30:02.181Z,18.45
2022-09-03T21:33:10.068Z,18.52
2022-09-03T21:36:15.789Z,18.52
2022-09-03T21:39:22.573Z,18.44
2022-09-03T21:42:28.566Z,18.49
2022-09-03T21:45:36.480Z,18.55
2022-09-03T21:48:42.553Z,18.63
2022-09-03T21:51:51.049Z,18.73
2022-09-03T21:54:54.917Z,18.75
2022-09-03T21:58:09.651Z,18.82
2022-09-03T22:01:16.511Z,18.20
2022-09-03T22:04:20.555Z,17.99
2022-09-03T22:07:30.862Z,17.80
2022-09-03T22:10:36.063Z,17.78
2022-09-03T22:13:44.030Z,17.73
2022-09-03T22:16:49.675Z,17.72
2022-09-03T22:19:53.697Z,17.64
2022-09-03T22:22:59.069Z,17.67
2022-09-03T22:26:07.441Z,17.68
2022-09-03T22:29:16.067Z,17.69
2022-09-03T22:32:28.580Z,17.81
2022-09-03T22:35:53.255Z,17.82
2022-09-03T22:39:04.686Z,17.86
2022-09-03T22:42:29.371Z,17.86
2022-09-03T22:45:45.182Z,17.85
2022-09-03T22:49:07.269Z,17.71
2022-09-03T22:52:29.961Z,17.56
2022-09-03T22:55:34.028Z,17.50
2022-09-03T22:58:40.548Z,17.49
2022-09-03T23:01:45.447Z,17.59
2022-09-03T23:04:52.250Z,17.61
2022-09-03T23:07:58.895Z,17.51
2022-09-03T23:11:06.297Z,17.42
2022-09-03T23:14:12.505Z,17.37
2022-09-03T23:17:20.200Z,17.23
2022-09-03T23:20:25.433Z,17.18
2022-09-03T23:23:32.528Z,17.13
2022-09-03T23:26:38.608Z,17.09
2022-09-03T23:29:43.690Z,16.94
2022-09-03T23:32:46.353Z,16.87
2022-09-03T23:35:54.963Z,16.91
2022-09-03T23:39:04.849Z,16.83
2022-09-03T23:42:15.139Z,16.87
2022-09-03T23:45:23.786Z,16.80
2022-09-03T23:48:36.781Z,16.71
2022-09-03T23:51:50.768Z,16.65
2022-09-03T23:55:01.997Z,16.61
2022-09-03T23:58:10.694Z,16.55
